Impacts TAF Board
For situational awareness. Not to be used for flight planning purposes.
IDs:

KJAN - Jackson/Evers Intl, MS, US

Issued at 2332 UTC 05 Dec 2020
Updated at 0224 UTC 06 Dec 2020
Potential Impact None Slight Moderate High
Time0154Z 06/03Z 06/04Z 06/05Z 06/06Z 06/07Z 06/08Z 06/09Z 06/10Z 06/11Z 06/12Z 06/13Z 06/14Z 06/15Z>>
Type OBS PRVL PRVL PRVL PRVL PRVL PRVL PRVL PRVL PRVL PRVL PRVL PRVL PRVL
VIS 10 >6 >6 >6 >6 >6 >6 >6 >6 >6 >6 >6 >6 >6
CIG -- 250 250 250 250 250 250 250 250 250 250 250 250 250
Cover CLR OVC OVC OVC OVC OVC OVC OVC OVC OVC OVC OVC OVC OVC
FltCat VFR VFR VFR VFR VFR VFR VFR VFR VFR VFR VFR VFR VFR VFR
WX -- -- -- -- -- -- -- -- -- -- -- -- -- --
WDir 140 220 220 220 220 220 220 220 220 220 220 220 220 220
WSpd 3 3 3 3 3 3 3 3 3 3 3 3 3 3
WGst -- -- -- -- -- -- -- -- -- -- -- -- -- --
Raw TAF
KJAN 052332Z 0600/0624 22003KT P6SM OVC250
  FM062100 25005KT P6SM -RA OVC040


Raw METAR
KJAN 060154Z 14003KT 10SM CLR 08/05 A3015 RMK AO2 SLP209 T00780050
KJAN 060054Z 00000KT 10SM CLR 08/06 A3015 RMK AO2 SLP210 T00780056
KJAN 052354Z 00000KT 10SM FEW250 08/06 A3014 RMK AO2 SLP208 T00830056 10150 20083 50001

METAR Board
Radar Display
Forecast Discussion
For situational awareness. Not to be used for flight planning purposes.